Back to Top

Language: 

My Weather Underground Personal Weather Station Historical Data with Graphs...

Delerius Weather Station Historical Data
Daily Summary for January 8, 2018 Units:  Metric    English   Both
« Previous Day
Next Day »
Daily Weekly Monthly Yearly Custom
  High: Low: Average:
Temperature: 3.2 °C -5.8 °C 0.1 °C
Dew Point: 1.9 °C -6.6 °C -0.9 °C
Humidity: 97 % 83 % 93 %
Wind Speed: 14.5 km/h 0 km/h 2.6 km/h
Wind Gust: 22.5 km/h - -
Wind:- - SE
Pressure: 1030.7 hPa 1016.1 hPa -
Precipitation: 0.51 mm    
Historical Graphs
 
 
Tabular Data for January 8, 2018
Time Temperature Dew Point Pressure Wind Wind Speed Wind Gust Humidity Rainfall Rate (Hourly) solar Conditions
00:00 -3.2 °C -4.1 °C 1030.7 hPa Calm   1.6 km/h 94 % 0 mm 0 W/m2
00:06 -3.3 °C -4.1 °C 1030.7 hPa SW 1.6 km/h 3.2 km/h 94 % 0 mm 0 W/m2
00:11 -3.3 °C -4.1 °C 1030.4 hPa Calm   1.6 km/h 94 % 0 mm 0 W/m2
00:12 -3.3 °C -4.1 °C 1030.7 hPa Calm     94 % 0 mm 0 W/m2
00:17 -3.4 °C -4.2 °C 1030.4 hPa NW 1.6 km/h 8 km/h 94 % 0 mm 0 W/m2
00:19 -3.4 °C -4.2 °C 1030.4 hPa NNW 1.6 km/h 6.4 km/h 94 % 0 mm 0 W/m2
00:24 -3.3 °C -4 °C 1030.4 hPa Calm     95 % 0 mm 0 W/m2
00:27 -3.3 °C -4 °C 1030.4 hPa Calm     95 % 0 mm 0 W/m2
00:32 -3.3 °C -4.1 °C 1030.4 hPa Calm     94 % 0 mm 0 W/m2
00:38 -3.3 °C -4.1 °C 1030.4 hPa Calm   1.6 km/h 94 % 0 mm 0 W/m2
00:44 -3.4 °C -4.2 °C 1030.4 hPa Calm     94 % 0 mm 0 W/m2
00:49 -3.4 °C -4.2 °C 1030 hPa Calm     94 % 0 mm 0 W/m2
00:54 -3.4 °C -4.2 °C 1030 hPa Calm     94 % 0 mm 0 W/m2
00:58 -3.4 °C -4.2 °C 1030 hPa Calm     94 % 0 mm 0 W/m2
01:08 -3.6 °C -4.4 °C 1030 hPa Calm     94 % 0 mm 0 W/m2
01:10 -3.7 °C -4.5 °C 1030 hPa Calm     94 % 0 mm 0 W/m2
01:16 -3.9 °C -4.7 °C 1029.7 hPa Calm     94 % 0 mm 0 W/m2
01:27 -4 °C -4.8 °C 1029.7 hPa Calm     94 % 0 mm 0 W/m2
01:32 -4.1 °C -4.9 °C 1029.7 hPa NNW 1.6 km/h 6.4 km/h 94 % 0 mm 0 W/m2
01:37 -4.2 °C -5 °C 1030 hPa WNW 3.2 km/h 6.4 km/h 94 % 0 mm 0 W/m2
01:40 -4.3 °C -5.1 °C 1030 hPa WNW 3.2 km/h 4.8 km/h 94 % 0 mm 0 W/m2
01:46 -4.2 °C -5 °C 1030 hPa WNW 1.6 km/h 3.2 km/h 94 % 0 mm 0 W/m2
01:51 -4.2 °C -5 °C 1030 hPa Calm   3.2 km/h 94 % 0 mm 0 W/m2
01:56 -4.2 °C -5 °C 1030 hPa Calm     94 % 0 mm 0 W/m2
02:01 -4.2 °C -5 °C 1029.7 hPa WNW 1.6 km/h 3.2 km/h 94 % 0 mm 0 W/m2
02:07 -4.3 °C -5.1 °C 1029.7 hPa WNW 1.6 km/h 6.4 km/h 94 % 0 mm 0 W/m2
02:12 -4.2 °C -4.9 °C 1029.7 hPa Calm   3.2 km/h 95 % 0 mm 0 W/m2
02:18 -4.1 °C -4.8 °C 1029.7 hPa Calm   3.2 km/h 95 % 0 mm 0 W/m2
02:23 -4.1 °C -4.8 °C 1029.7 hPa Calm     95 % 0 mm 0 W/m2
02:28 -4.1 °C -4.9 °C 1029.7 hPa Calm   3.2 km/h 94 % 0 mm 0 W/m2
02:35 -4.3 °C -5.1 °C 1029.7 hPa Calm   3.2 km/h 94 % 0 mm 0 W/m2
02:40 -4.5 °C -5.3 °C 1029.7 hPa Calm     94 % 0 mm 0 W/m2
02:45 -4.6 °C -5.4 °C 1029.7 hPa Calm     94 % 0 mm 0 W/m2
02:50 -4.7 °C -5.5 °C 1029.7 hPa Calm   3.2 km/h 94 % 0 mm 0 W/m2
02:56 -4.7 °C -5.5 °C 1029.7 hPa Calm   1.6 km/h 94 % 0 mm 0 W/m2
03:01 -4.8 °C -5.6 °C 1029.7 hPa Calm   1.6 km/h 94 % 0 mm 0 W/m2
03:03 -4.8 °C -5.6 °C 1029.7 hPa WNW 1.6 km/h 3.2 km/h 94 % 0 mm 0 W/m2
03:08 -4.8 °C -5.6 °C 1029.7 hPa Calm   3.2 km/h 94 % 0 mm 0 W/m2
03:14 -4.9 °C -5.7 °C 1029.7 hPa Calm     94 % 0 mm 0 W/m2
03:19 -4.8 °C -5.6 °C 1029.3 hPa Calm     94 % 0 mm 0 W/m2
03:26 -4.8 °C -5.5 °C 1029.3 hPa Calm   1.6 km/h 95 % 0 mm 0 W/m2
03:36 -4.8 °C -5.5 °C 1029.3 hPa Calm   1.6 km/h 95 % 0 mm 0 W/m2
03:41 -4.8 °C -5.5 °C 1029.3 hPa Calm     95 % 0 mm 0 W/m2
03:44 -4.7 °C -5.4 °C 1029.3 hPa Calm     95 % 0 mm 0 W/m2
03:55 -4.8 °C -5.5 °C 1029.3 hPa Calm     95 % 0 mm 0 W/m2
04:02 -4.8 °C -5.5 °C 1029 hPa Calm     95 % 0 mm 0 W/m2
04:36 -4.8 °C -5.5 °C 1029 hPa WNW 1.6 km/h 3.2 km/h 95 % 0 mm 0 W/m2
04:48 -4.8 °C -5.5 °C 1029 hPa Calm   1.6 km/h 95 % 0 mm 0 W/m2
05:03 -5.1 °C -5.9 °C 1028.7 hPa Calm     94 % 0 mm 0 W/m2
05:08 -5.2 °C -6 °C 1028.7 hPa Calm     94 % 0 mm 0 W/m2
05:36 -5.2 °C -5.9 °C 1028.3 hPa Calm     95 % 0 mm 0 W/m2
05:45 -5.2 °C -5.9 °C 1028.3 hPa Calm     95 % 0 mm 0 W/m2
05:52 -5.3 °C -6 °C 1028.7 hPa WNW 3.2 km/h 6.4 km/h 95 % 0 mm 0 W/m2
06:07 -5.2 °C -5.9 °C 1028.7 hPa Calm     95 % 0 mm 0 W/m2
06:17 -5.5 °C -6.3 °C 1028.7 hPa WNW 1.6 km/h 3.2 km/h 94 % 0 mm 0 W/m2
06:24 -5.7 °C -6.5 °C 1028.7 hPa WNW 3.2 km/h 4.8 km/h 94 % 0 mm 0 W/m2
06:41 -5.8 °C -6.6 °C 1028.3 hPa Calm   1.6 km/h 94 % 0 mm 0 W/m2
06:54 -5.7 °C -6.4 °C 1028.3 hPa Calm   1.6 km/h 95 % 0 mm 0 W/m2
07:18 -5.3 °C -6 °C 1028 hPa WNW 1.6 km/h 3.2 km/h 95 % 0 mm 0 W/m2
07:33 -5.3 °C -6 °C 1027.7 hPa Calm     95 % 0 mm 0 W/m2
08:13 -5.8 °C -6.6 °C 1027.7 hPa WNW 1.6 km/h 3.2 km/h 94 % 0 mm 0 W/m2
08:24 -5.8 °C -6.4 °C 1027.7 hPa Calm   1.6 km/h 95 % 0 mm 5 W/m2
08:42 -5.6 °C -6.3 °C 1027.7 hPa Calm   1.6 km/h 95 % 0 mm 12 W/m2
08:47 -5.6 °C -6.3 °C 1027.7 hPa Calm     95 % 0 mm 14 W/m2
08:58 -5.6 °C -6.3 °C 1027.3 hPa Calm     95 % 0 mm 16 W/m2
09:03 -5.3 °C -6 °C 1027.3 hPa Calm     95 % 0 mm 18 W/m2
09:10 -5.2 °C -5.9 °C 1027.3 hPa Calm     95 % 0 mm 19 W/m2
09:16 -5.1 °C -5.8 °C 1027 hPa Calm     95 % 0 mm 21 W/m2
09:20 -5 °C -5.7 °C 1027 hPa Calm     95 % 0 mm 21 W/m2
09:26 -4.9 °C -5.6 °C 1027 hPa Calm     95 % 0 mm 25 W/m2
09:27 -4.9 °C -5.6 °C 1027 hPa Calm     95 % 0 mm 26 W/m2
09:32 -4.7 °C -5.4 °C 1027 hPa Calm     95 % 0 mm 62 W/m2
09:37 -4.6 °C -5.2 °C 1027 hPa Calm     96 % 0 mm 72 W/m2
09:40 -4.4 °C -4.9 °C 1027 hPa Calm     96 % 0 mm 83 W/m2
09:45 -4.1 °C -4.7 °C 1027 hPa Calm     96 % 0 mm 90 W/m2
09:49 -3.8 °C -4.3 °C 1027 hPa Calm     96 % 0 mm 90 W/m2
09:53 -3.6 °C -4.2 °C 1027 hPa Calm     96 % 0 mm 95 W/m2
09:58 -3.3 °C -3.8 °C 1026.6 hPa Calm     96 % 0 mm 98 W/m2
10:03 -3.1 °C -3.7 °C 1027 hPa Calm     96 % 0 mm 104 W/m2
10:08 -2.9 °C -3.4 °C 1026.6 hPa Calm     96 % 0 mm 109 W/m2
10:13 -2.7 °C -3.2 °C 1026.6 hPa Calm     96 % 0 mm 116 W/m2
10:14 -2.7 °C -3.2 °C 1026.6 hPa Calm     96 % 0 mm 116 W/m2
10:19 -2.3 °C -2.8 °C 1026.6 hPa Calm     96 % 0 mm 135 W/m2
10:22 -2.2 °C -2.8 °C 1026.6 hPa Calm     96 % 0 mm 146 W/m2
10:25 -2 °C -2.6 °C 1026.6 hPa Calm     96 % 0 mm 151 W/m2
10:30 -1.7 °C -2.3 °C 1026.6 hPa Calm     96 % 0 mm 158 W/m2
10:32 -1.7 °C -2.3 °C 1026.6 hPa Calm     96 % 0 mm 165 W/m2
10:37 -1.4 °C -1.9 °C 1026.3 hPa Calm     96 % 0 mm 176 W/m2
10:42 -1.3 °C -2 °C 1026.6 hPa Calm     95 % 0.25 mm 190 W/m2
10:45 -1.2 °C -1.9 °C 1026.6 hPa Calm     95 % 0.25 mm 207 W/m2
10:51 -0.9 °C -1.6 °C 1026.3 hPa Calm     95 % 0.25 mm 239 W/m2
10:56 -0.7 °C -1.4 °C 1026.3 hPa Calm     95 % 0.25 mm 260 W/m2
11:01 -0.4 °C -1.1 °C 1026.3 hPa Calm     95 % 0.25 mm 271 W/m2
11:06 -0.2 °C -0.9 °C 1026.3 hPa Calm     95 % 0.25 mm 265 W/m2
11:11 0.1 °C -0.6 °C 1026.3 hPa Calm     95 % 0.25 mm 269 W/m2
11:16 0.4 °C -0.4 °C 1026 hPa Calm     94 % 0.25 mm 271 W/m2
11:21 0.7 °C -0.2 °C 1026 hPa Calm     94 % 0.25 mm 274 W/m2
11:26 0.9 °C -0.1 °C 1025.6 hPa Calm     93 % 0.25 mm 278 W/m2
11:27 1.1 °C 0.1 °C 1025.6 hPa Calm     93 % 0.25 mm 279 W/m2
11:33 1.3 °C 0.2 °C 1025.6 hPa Calm     92 % 0.25 mm 281 W/m2
11:38 1.5 °C 0.3 °C 1025.6 hPa Calm     92 % 0.25 mm 285 W/m2
11:39 1.6 °C 0.4 °C 1025.3 hPa Calm     92 % 0 mm 287 W/m2
11:44 1.7 °C 0.4 °C 1025.3 hPa Calm     91 % 0 mm 130 W/m2
11:49 1.6 °C 0 °C 1025.3 hPa Calm     89 % 0 mm 127 W/m2
11:55 1.4 °C -0.2 °C 1025.3 hPa Calm     89 % 0 mm 114 W/m2
12:00 1.3 °C -0.3 °C 1024.9 hPa Calm     89 % 0 mm 144 W/m2
12:06 1.3 °C -0.2 °C 1024.9 hPa Calm     90 % 0 mm 149 W/m2
12:11 1.3 °C -0.2 °C 1024.6 hPa Calm     90 % 0 mm 153 W/m2
12:12 1.3 °C -0.2 °C 1024.6 hPa Calm     90 % 0 mm 153 W/m2
12:17 1.3 °C -0.2 °C 1024.6 hPa Calm     90 % 0 mm 195 W/m2
12:19 1.3 °C -0.2 °C 1024.6 hPa Calm     90 % 0 mm 202 W/m2
12:24 1.4 °C -0.1 °C 1024.6 hPa Calm     90 % 0 mm 221 W/m2
12:25 1.4 °C -0.1 °C 1024.6 hPa Calm     90 % 0 mm 220 W/m2
12:26 1.5 °C 0.1 °C 1024.6 hPa Calm     90 % 0 mm 265 W/m2
12:31 1.6 °C 0.1 °C 1024.3 hPa Calm     90 % 0 mm 269 W/m2
12:33 1.7 °C 0.4 °C 1024.3 hPa Calm     91 % 0 mm 186 W/m2
12:39 1.9 °C 0.4 °C 1024.3 hPa Calm     90 % 0 mm 290 W/m2
12:44 2.1 °C 0.5 °C 1024.3 hPa Calm     89 % 0 mm 134 W/m2
12:50 2 °C 0.4 °C 1023.9 hPa Calm     89 % 0 mm 148 W/m2
12:56 2 °C 0.2 °C 1023.9 hPa Calm     88 % 0 mm 130 W/m2
13:02 2.1 °C 0.3 °C 1023.6 hPa Calm     88 % 0 mm 97 W/m2
13:07 2.1 °C 0.3 °C 1023.6 hPa Calm     88 % 0 mm 172 W/m2
13:12 2.2 °C 0.4 °C 1023.6 hPa Calm     88 % 0 mm 104 W/m2
13:19 2.2 °C 0.4 °C 1023.6 hPa Calm     88 % 0 mm 128 W/m2
13:25 2.3 °C 0.3 °C 1023.6 hPa Calm     87 % 0 mm 104 W/m2
13:31 2.3 °C 0.3 °C 1023.6 hPa Calm     87 % 0 mm 90 W/m2
13:38 2.3 °C 0.3 °C 1023.2 hPa Calm     87 % 0 mm 81 W/m2
13:39 2.3 °C 0.3 °C 1023.2 hPa Calm     87 % 0 mm 77 W/m2
13:43 2.3 °C 0.3 °C 1023.2 hPa Calm   1.6 km/h 87 % 0 mm 72 W/m2
13:49 2.4 °C 0.4 °C 1022.9 hPa Calm   3.2 km/h 87 % 0 mm 70 W/m2
13:54 2.4 °C 0.4 °C 1022.9 hPa Calm   3.2 km/h 87 % 0 mm 60 W/m2
13:59 2.5 °C 0.6 °C 1022.9 hPa Calm   3.2 km/h 87 % 0 mm 53 W/m2
14:04 2.6 °C 0.5 °C 1022.9 hPa East 3.2 km/h 9.7 km/h 86 % 0 mm 47 W/m2
14:08 2.7 °C 0.6 °C 1022.9 hPa Calm   4.8 km/h 86 % 0 mm 40 W/m2
14:11 2.7 °C 0.6 °C 1022.9 hPa East 1.6 km/h 6.4 km/h 86 % 0 mm 40 W/m2
14:16 2.8 °C 0.5 °C 1022.9 hPa Calm   3.2 km/h 85 % 0 mm 39 W/m2
14:22 2.8 °C 0.5 °C 1022.9 hPa East 3.2 km/h 6.4 km/h 85 % 0 mm 33 W/m2
14:28 2.9 °C 0.4 °C 1022.6 hPa ESE 4.8 km/h 11.3 km/h 84 % 0 mm 33 W/m2
14:33 3 °C 0.6 °C 1022.6 hPa East 4.8 km/h 9.7 km/h 84 % 0 mm 30 W/m2
14:37 3 °C 0.4 °C 1022.6 hPa East 3.2 km/h 9.7 km/h 83 % 0 mm 25 W/m2
14:45 3.1 °C 0.5 °C 1022.6 hPa East 6.4 km/h 9.7 km/h 83 % 0 mm 19 W/m2
14:51 3.1 °C 0.5 °C 1022.6 hPa ESE 6.4 km/h 11.3 km/h 83 % 0 mm 16 W/m2
14:56 3.1 °C 0.7 °C 1022.6 hPa East 9.7 km/h 14.5 km/h 84 % 0 mm 12 W/m2
15:00 3.2 °C 0.8 °C 1022.2 hPa ESE 9.7 km/h 17.7 km/h 84 % 0 mm 12 W/m2
15:06 3.2 °C 0.9 °C 1022.2 hPa ESE 8 km/h 12.9 km/h 85 % 0 mm 11 W/m2
15:12 3.2 °C 0.9 °C 1022.2 hPa ESE 8 km/h 16.1 km/h 85 % 0 mm 9 W/m2
15:18 3.1 °C 1 °C 1022.2 hPa ESE 8 km/h 12.9 km/h 86 % 0 mm 9 W/m2
15:25 3.1 °C 1.2 °C 1022.2 hPa ESE 8 km/h 14.5 km/h 87 % 0 mm 7 W/m2
15:30 3.1 °C 1.2 °C 1022.2 hPa East 8 km/h 14.5 km/h 87 % 0 mm 5 W/m2
15:37 3.1 °C 1.2 °C 1022.2 hPa East 8 km/h 11.3 km/h 87 % 0 mm 5 W/m2
15:43 3 °C 1.2 °C 1022.2 hPa ESE 4.8 km/h 11.3 km/h 88 % 0 mm 0 W/m2
15:47 3 °C 1.2 °C 1022.2 hPa East 4.8 km/h 12.9 km/h 88 % 0 mm 0 W/m2
15:52 2.9 °C 1.1 °C 1021.9 hPa ESE 4.8 km/h 12.9 km/h 88 % 0 mm 0 W/m2
15:57 2.9 °C 1.3 °C 1022.2 hPa ESE 3.2 km/h 9.7 km/h 89 % 0 mm 0 W/m2
16:03 2.9 °C 1.3 °C 1021.9 hPa East 8 km/h 12.9 km/h 89 % 0 mm 0 W/m2
16:08 2.8 °C 1.2 °C 1021.9 hPa East 8 km/h 14.5 km/h 89 % 0 mm 0 W/m2
16:14 2.8 °C 1.3 °C 1022.2 hPa ESE 12.9 km/h 22.5 km/h 90 % 0 mm 0 W/m2
16:16 2.8 °C 1.3 °C 1022.2 hPa ESE 14.5 km/h 20.9 km/h 90 % 0 mm 0 W/m2
16:21 2.8 °C 1.3 °C 1021.9 hPa ESE 9.7 km/h 16.1 km/h 90 % 0 mm 0 W/m2
16:27 2.7 °C 1.2 °C 1022.2 hPa SE 11.3 km/h 16.1 km/h 90 % 0 mm 0 W/m2
16:32 2.7 °C 1.2 °C 1021.9 hPa SE 8 km/h 11.3 km/h 90 % 0 mm 0 W/m2
16:35 2.7 °C 1.2 °C 1021.9 hPa ESE 4.8 km/h 9.7 km/h 90 % 0 mm 0 W/m2
16:37 2.7 °C 1.2 °C 1021.9 hPa ESE 6.4 km/h 11.3 km/h 90 % 0 mm 0 W/m2
16:38 2.7 °C 1.2 °C 1021.9 hPa ESE 6.4 km/h 9.7 km/h 90 % 0 mm 0 W/m2
16:42 2.7 °C 1.2 °C 1021.9 hPa ESE 4.8 km/h 9.7 km/h 90 % 0 mm 0 W/m2
16:47 2.6 °C 1.1 °C 1021.9 hPa East 3.2 km/h 9.7 km/h 90 % 0 mm 0 W/m2
16:52 2.6 °C 1.1 °C 1021.9 hPa East 1.6 km/h 6.4 km/h 90 % 0 mm 0 W/m2
16:56 2.6 °C 1.1 °C 1021.9 hPa East 4.8 km/h 9.7 km/h 90 % 0 mm 0 W/m2
16:58 2.6 °C 1.3 °C 1021.6 hPa East 4.8 km/h 9.7 km/h 91 % 0 mm 0 W/m2
17:04 2.6 °C 1.3 °C 1021.6 hPa ENE 8 km/h 11.3 km/h 91 % 0 mm 0 W/m2
17:09 2.5 °C 1.2 °C 1021.6 hPa East 4.8 km/h 11.3 km/h 91 % 0 mm 0 W/m2
17:14 2.5 °C 1.2 °C 1021.6 hPa East 1.6 km/h 6.4 km/h 91 % 0 mm 0 W/m2
17:16 2.5 °C 1.2 °C 1021.6 hPa Calm   6.4 km/h 91 % 0 mm 0 W/m2
17:21 2.5 °C 1.3 °C 1021.6 hPa East 3.2 km/h 6.4 km/h 92 % 0 mm 0 W/m2
17:26 2.5 °C 1.3 °C 1021.6 hPa Calm   4.8 km/h 92 % 0 mm 0 W/m2
17:31 2.4 °C 1.2 °C 1021.6 hPa East 3.2 km/h 6.4 km/h 92 % 0 mm 0 W/m2
17:36 2.4 °C 1.4 °C 1021.6 hPa East 1.6 km/h 8 km/h 93 % 0 mm 0 W/m2
17:41 2.4 °C 1.4 °C 1021.2 hPa East 1.6 km/h 8 km/h 93 % 0 mm 0 W/m2
17:46 2.4 °C 1.4 °C 1021.2 hPa East 1.6 km/h 6.4 km/h 93 % 0 mm 0 W/m2
17:48 2.4 °C 1.4 °C 1021.6 hPa East 1.6 km/h 6.4 km/h 93 % 0 mm 0 W/m2
17:49 2.4 °C 1.4 °C 1021.6 hPa Calm   1.6 km/h 93 % 0 mm 0 W/m2
17:55 2.4 °C 1.4 °C 1021.6 hPa ENE 1.6 km/h 8 km/h 93 % 0 mm 0 W/m2
18:03 2.4 °C 1.6 °C 1021.6 hPa East 1.6 km/h 6.4 km/h 94 % 0 mm 0 W/m2
18:08 2.4 °C 1.6 °C 1021.2 hPa Calm   3.2 km/h 94 % 0 mm 0 W/m2
18:13 2.4 °C 1.6 °C 1021.2 hPa ENE 1.6 km/h 8 km/h 94 % 0 mm 0 W/m2
18:14 2.4 °C 1.6 °C 1021.2 hPa ENE 3.2 km/h 8 km/h 94 % 0 mm 0 W/m2
18:20 2.4 °C 1.6 °C 1021.2 hPa ENE 1.6 km/h 8 km/h 94 % 0 mm 0 W/m2
18:25 2.4 °C 1.6 °C 1020.9 hPa ENE 1.6 km/h 8 km/h 94 % 0 mm 0 W/m2
18:30 2.3 °C 1.4 °C 1020.9 hPa ENE 1.6 km/h 6.4 km/h 94 % 0 mm 0 W/m2
18:35 2.3 °C 1.4 °C 1020.9 hPa ENE 3.2 km/h 8 km/h 94 % 0 mm 0 W/m2
18:40 2.3 °C 1.6 °C 1020.9 hPa ENE 1.6 km/h 6.4 km/h 95 % 0 mm 0 W/m2
18:45 2.3 °C 1.6 °C 1020.9 hPa ENE 1.6 km/h 3.2 km/h 95 % 0 mm 0 W/m2
18:47 2.3 °C 1.6 °C 1020.9 hPa East 1.6 km/h 8 km/h 95 % 0 mm 0 W/m2
18:52 2.3 °C 1.6 °C 1020.9 hPa East 3.2 km/h 9.7 km/h 95 % 0 mm 0 W/m2
18:54 2.3 °C 1.6 °C 1020.5 hPa East 3.2 km/h 9.7 km/h 95 % 0 mm 0 W/m2
18:59 2.3 °C 1.6 °C 1020.5 hPa East 3.2 km/h 8 km/h 95 % 0 mm 0 W/m2
19:04 2.3 °C 1.6 °C 1020.5 hPa ESE 4.8 km/h 9.7 km/h 95 % 0 mm 0 W/m2
19:09 2.3 °C 1.6 °C 1020.5 hPa ESE 3.2 km/h 8 km/h 95 % 0 mm 0 W/m2
19:13 2.3 °C 1.6 °C 1020.5 hPa East 1.6 km/h 3.2 km/h 95 % 0 mm 0 W/m2
19:15 2.3 °C 1.6 °C 1020.5 hPa Calm     95 % 0 mm 0 W/m2
19:20 2.3 °C 1.6 °C 1020.2 hPa Calm   1.6 km/h 95 % 0 mm 0 W/m2
19:25 2.3 °C 1.6 °C 1020.2 hPa East 4.8 km/h 8 km/h 95 % 0 mm 0 W/m2
19:30 2.2 °C 1.5 °C 1020.2 hPa East 1.6 km/h 4.8 km/h 95 % 0 mm 0 W/m2
19:32 2.2 °C 1.5 °C 1020.2 hPa East 1.6 km/h 4.8 km/h 95 % 0 mm 0 W/m2
19:37 2.2 °C 1.5 °C 1019.9 hPa East 1.6 km/h 6.4 km/h 95 % 0.25 mm 0 W/m2
19:43 2.2 °C 1.5 °C 1019.9 hPa ESE 3.2 km/h 6.4 km/h 95 % 0.25 mm 0 W/m2
19:48 2.2 °C 1.5 °C 1019.9 hPa ESE 1.6 km/h 6.4 km/h 95 % 0.25 mm 0 W/m2
19:53 2.3 °C 1.6 °C 1019.9 hPa ENE 3.2 km/h 8 km/h 95 % 0.25 mm 0 W/m2
19:59 2.3 °C 1.6 °C 1019.9 hPa ENE 1.6 km/h 3.2 km/h 95 % 0.25 mm 0 W/m2
20:05 2.2 °C 1.6 °C 1019.5 hPa ENE 1.6 km/h 4.8 km/h 96 % 0.25 mm 0 W/m2
20:07 2.3 °C 1.7 °C 1019.5 hPa East 3.2 km/h 8 km/h 96 % 0.25 mm 0 W/m2
20:11 2.3 °C 1.7 °C 1019.5 hPa East 1.6 km/h 6.4 km/h 96 % 0.25 mm 0 W/m2
20:16 2.3 °C 1.7 °C 1019.5 hPa ESE 3.2 km/h 9.7 km/h 96 % 0.25 mm 0 W/m2
20:23 2.3 °C 1.7 °C 1019.5 hPa East 3.2 km/h 8 km/h 96 % 0.25 mm 0 W/m2
20:29 2.3 °C 1.7 °C 1019.2 hPa ENE 1.6 km/h 8 km/h 96 % 0.25 mm 0 W/m2
20:36 2.3 °C 1.7 °C 1019.2 hPa East 1.6 km/h 8 km/h 96 % 0 mm 0 W/m2
20:42 2.4 °C 1.8 °C 1019.2 hPa ENE 1.6 km/h 4.8 km/h 96 % 0 mm 0 W/m2
20:51 2.4 °C 1.8 °C 1019.2 hPa ESE 3.2 km/h 8 km/h 96 % 0 mm 0 W/m2
20:58 2.4 °C 1.8 °C 1018.8 hPa Calm   3.2 km/h 96 % 0 mm 0 W/m2
21:12 2.4 °C 1.8 °C 1018.8 hPa East 1.6 km/h 3.2 km/h 96 % 0 mm 0 W/m2
21:20 2.4 °C 1.8 °C 1018.5 hPa East 1.6 km/h 6.4 km/h 96 % 0 mm 0 W/m2
21:25 2.4 °C 1.8 °C 1018.8 hPa East 1.6 km/h 4.8 km/h 96 % 0 mm 0 W/m2
21:30 2.4 °C 1.8 °C 1018.5 hPa Calm   3.2 km/h 96 % 0 mm 0 W/m2
21:37 2.4 °C 1.8 °C 1018.5 hPa SE 1.6 km/h 6.4 km/h 96 % 0 mm 0 W/m2
21:43 2.4 °C 1.8 °C 1018.2 hPa ESE 3.2 km/h 8 km/h 96 % 0 mm 0 W/m2
21:48 2.5 °C 1.9 °C 1018.2 hPa ESE 8 km/h 11.3 km/h 96 % 0 mm 0 W/m2
21:56 2.5 °C 1.9 °C 1018.2 hPa ESE 6.4 km/h 11.3 km/h 96 % 0 mm 0 W/m2
22:01 2.5 °C 1.9 °C 1018.2 hPa ESE 6.4 km/h 11.3 km/h 96 % 0 mm 0 W/m2
22:07 2.5 °C 1.9 °C 1018.2 hPa ESE 8 km/h 14.5 km/h 96 % 0 mm 0 W/m2
22:20 2.5 °C 1.9 °C 1018.2 hPa ESE 8 km/h 12.9 km/h 96 % 0 mm 0 W/m2
22:25 2.4 °C 1.8 °C 1017.8 hPa ESE 8 km/h 14.5 km/h 96 % 0 mm 0 W/m2
22:30 2.4 °C 1.8 °C 1017.8 hPa ESE 6.4 km/h 9.7 km/h 96 % 0 mm 0 W/m2
22:35 2.4 °C 1.8 °C 1017.5 hPa ESE 8 km/h 11.3 km/h 96 % 0 mm 0 W/m2
22:38 2.4 °C 1.8 °C 1017.5 hPa ESE 8 km/h 11.3 km/h 96 % 0 mm 0 W/m2
22:43 2.4 °C 1.8 °C 1017.5 hPa ESE 6.4 km/h 11.3 km/h 96 % 0 mm 0 W/m2
22:48 2.4 °C 1.8 °C 1017.5 hPa ESE 6.4 km/h 11.3 km/h 96 % 0 mm 0 W/m2
22:51 2.4 °C 1.8 °C 1017.5 hPa ESE 8 km/h 11.3 km/h 96 % 0 mm 0 W/m2
22:55 2.4 °C 1.8 °C 1017.5 hPa SE 8 km/h 12.9 km/h 96 % 0 mm 0 W/m2
22:56 2.4 °C 1.8 °C 1017.2 hPa ESE 8 km/h 14.5 km/h 96 % 0 mm 0 W/m2
22:57 2.4 °C 1.8 °C 1017.2 hPa ESE 8 km/h 14.5 km/h 96 % 0 mm 0 W/m2
22:58 2.4 °C 1.8 °C 1017.2 hPa ESE 9.7 km/h 14.5 km/h 96 % 0 mm 0 W/m2
23:00 2.4 °C 1.8 °C 1017.2 hPa ESE 9.7 km/h 14.5 km/h 96 % 0 mm 0 W/m2
23:04 2.4 °C 1.8 °C 1017.2 hPa ESE 11.3 km/h 14.5 km/h 96 % 0 mm 0 W/m2
23:05 2.4 °C 1.8 °C 1017.2 hPa ESE 9.7 km/h 12.9 km/h 96 % 0 mm 0 W/m2
23:06 2.4 °C 1.8 °C 1017.2 hPa SE 9.7 km/h 12.9 km/h 96 % 0 mm 0 W/m2
23:08 2.4 °C 1.8 °C 1017.2 hPa SE 11.3 km/h 16.1 km/h 96 % 0 mm 0 W/m2
23:13 2.3 °C 1.7 °C 1016.8 hPa SE 4.8 km/h 11.3 km/h 96 % 0 mm 0 W/m2
23:16 2.3 °C 1.7 °C 1016.8 hPa SE 4.8 km/h 9.7 km/h 96 % 0 mm 0 W/m2
23:17 2.3 °C 1.7 °C 1016.8 hPa SE 6.4 km/h 12.9 km/h 96 % 0 mm 0 W/m2
23:19 2.3 °C 1.7 °C 1016.8 hPa SE 6.4 km/h 11.3 km/h 96 % 0 mm 0 W/m2
23:20 2.3 °C 1.7 °C 1016.5 hPa SE 8 km/h 17.7 km/h 96 % 0 mm 0 W/m2
23:23 2.3 °C 1.7 °C 1016.5 hPa SE 9.7 km/h 14.5 km/h 96 % 0 mm 0 W/m2
23:24 2.3 °C 1.7 °C 1016.8 hPa SE 9.7 km/h 12.9 km/h 96 % 0 mm 0 W/m2
23:26 2.3 °C 1.7 °C 1016.5 hPa ESE 9.7 km/h 12.9 km/h 96 % 0 mm 0 W/m2
23:30 2.3 °C 1.7 °C 1016.5 hPa ESE 6.4 km/h 16.1 km/h 96 % 0 mm 0 W/m2
23:32 2.3 °C 1.7 °C 1016.5 hPa ESE 4.8 km/h 16.1 km/h 96 % 0 mm 0 W/m2
23:37 2.3 °C 1.7 °C 1016.5 hPa SSE 6.4 km/h 9.7 km/h 96 % 0 mm 0 W/m2
23:38 2.3 °C 1.9 °C 1016.5 hPa SSE 6.4 km/h 9.7 km/h 97 % 0 mm 0 W/m2
23:41 2.3 °C 1.9 °C 1016.5 hPa ESE 8 km/h 11.3 km/h 97 % 0 mm 0 W/m2
23:44 2.3 °C 1.9 °C 1016.5 hPa ESE 6.4 km/h 11.3 km/h 97 % 0 mm 0 W/m2
23:45 2.3 °C 1.9 °C 1016.5 hPa ESE 8 km/h 11.3 km/h 97 % 0 mm 0 W/m2
23:46 2.3 °C 1.9 °C 1016.5 hPa ESE 6.4 km/h 11.3 km/h 97 % 0 mm 0 W/m2
23:50 2.3 °C 1.9 °C 1016.1 hPa ESE 8 km/h 11.3 km/h 97 % 0 mm 0 W/m2
23:53 2.2 °C 1.8 °C 1016.1 hPa ESE 9.7 km/h 14.5 km/h 97 % 0 mm 0 W/m2
23:55 2.2 °C 1.8 °C 1016.1 hPa ESE 8 km/h 12.9 km/h 97 % 0 mm 0 W/m2
23:56 2.2 °C 1.8 °C 1016.1 hPa ESE 8 km/h 12.9 km/h 97 % 0 mm 0 W/m2
23:59 2.2 °C 1.8 °C 1016.1 hPa ESE 9.7 km/h 16.1 km/h 97 % 0 mm 0 W/m2
Delerius-Weather
Compliments of Weather Underground - 2.25 mb

Data updates at regular intervals.